sensor_id;sensor_type;location;lat;lon;timestamp;P1;durP1;ratioP1;P2;durP2;ratioP2
64075;SDS011;50327;51.328;12.324;2022-11-27T00:01:23;33.80;;;12.05;;
64075;SDS011;50327;51.328;12.324;2022-11-27T00:03:48;26.33;;;12.38;;
64075;SDS011;50327;51.328;12.324;2022-11-27T00:06:15;28.60;;;11.88;;
64075;SDS011;50327;51.328;12.324;2022-11-27T00:08:41;27.35;;;11.00;;
64075;SDS011;50327;51.328;12.324;2022-11-27T00:11:07;33.45;;;13.07;;
64075;SDS011;50327;51.328;12.324;2022-11-27T00:13:33;43.95;;;12.70;;
64075;SDS011;50327;51.328;12.324;2022-11-27T00:15:58;35.95;;;11.98;;
64075;SDS011;50327;51.328;12.324;2022-11-27T00:18:23;34.85;;;11.77;;
64075;SDS011;50327;51.328;12.324;2022-11-27T00:20:48;38.80;;;12.25;;
64075;SDS011;50327;51.328;12.324;2022-11-27T00:23:14;28.88;;;11.65;;
64075;SDS011;50327;51.328;12.324;2022-11-27T00:25:39;32.33;;;11.02;;
64075;SDS011;50327;51.328;12.324;2022-11-27T00:28:04;30.13;;;11.63;;
64075;SDS011;50327;51.328;12.324;2022-11-27T00:30:29;34.70;;;13.10;;
64075;SDS011;50327;51.328;12.324;2022-11-27T00:32:55;31.90;;;11.52;;
64075;SDS011;50327;51.328;12.324;2022-11-27T00:35:20;37.47;;;13.30;;
64075;SDS011;50327;51.328;12.324;2022-11-27T00:37:45;29.98;;;10.98;;
64075;SDS011;50327;51.328;12.324;2022-11-27T00:40:10;42.25;;;14.07;;
64075;SDS011;50327;51.328;12.324;2022-11-27T00:42:36;28.95;;;13.85;;
64075;SDS011;50327;51.328;12.324;2022-11-27T00:45:01;37.53;;;15.52;;
64075;SDS011;50327;51.328;12.324;2022-11-27T00:47:26;46.80;;;14.32;;
64075;SDS011;50327;51.328;12.324;2022-11-27T00:49:51;45.17;;;15.43;;
64075;SDS011;50327;51.328;12.324;2022-11-27T00:52:17;38.90;;;15.38;;
64075;SDS011;50327;51.328;12.324;2022-11-27T00:54:42;49.80;;;14.70;;
64075;SDS011;50327;51.328;12.324;2022-11-27T00:57:07;34.88;;;14.85;;
64075;SDS011;50327;51.328;12.324;2022-11-27T00:59:32;36.90;;;14.10;;
64075;SDS011;50327;51.328;12.324;2022-11-27T01:01:57;40.00;;;13.95;;
64075;SDS011;50327;51.328;12.324;2022-11-27T01:04:23;34.22;;;13.38;;
64075;SDS011;50327;51.328;12.324;2022-11-27T01:06:48;35.95;;;12.63;;
64075;SDS011;50327;51.328;12.324;2022-11-27T01:09:13;35.15;;;13.80;;
64075;SDS011;50327;51.328;12.324;2022-11-27T01:11:39;30.08;;;13.27;;
64075;SDS011;50327;51.328;12.324;2022-11-27T01:14:05;31.75;;;12.70;;
64075;SDS011;50327;51.328;12.324;2022-11-27T01:16:31;23.60;;;11.75;;
64075;SDS011;50327;51.328;12.324;2022-11-27T01:18:57;27.20;;;12.05;;
64075;SDS011;50327;51.328;12.324;2022-11-27T01:21:23;32.25;;;10.48;;
64075;SDS011;50327;51.328;12.324;2022-11-27T01:23:49;28.48;;;10.98;;
64075;SDS011;50327;51.328;12.324;2022-11-27T01:26:14;29.63;;;12.35;;
64075;SDS011;50327;51.328;12.324;2022-11-27T01:28:39;32.53;;;11.82;;
64075;SDS011;50327;51.328;12.324;2022-11-27T01:31:10;27.67;;;11.85;;
64075;SDS011;50327;51.328;12.324;2022-11-27T01:33:36;26.17;;;11.63;;
64075;SDS011;50327;51.328;12.324;2022-11-27T01:36:02;31.75;;;12.02;;
64075;SDS011;50327;51.328;12.324;2022-11-27T01:38:29;24.20;;;10.98;;
64075;SDS011;50327;51.328;12.324;2022-11-27T01:48:48;25.00;;;9.63;;
64075;SDS011;50327;51.328;12.324;2022-11-27T01:51:14;25.70;;;10.68;;
64075;SDS011;50327;51.328;12.324;2022-11-27T01:53:40;23.88;;;9.98;;
64075;SDS011;50327;51.328;12.324;2022-11-27T01:56:06;27.95;;;9.88;;
64075;SDS011;50327;51.328;12.324;2022-11-27T01:58:32;26.35;;;11.18;;
64075;SDS011;50327;51.328;12.324;2022-11-27T02:00:58;29.33;;;11.05;;
64075;SDS011;50327;51.328;12.324;2022-11-27T02:03:24;24.63;;;10.55;;
64075;SDS011;50327;51.328;12.324;2022-11-27T02:05:49;25.80;;;10.85;;
64075;SDS011;50327;51.328;12.324;2022-11-27T02:08:15;24.02;;;10.90;;
64075;SDS011;50327;51.328;12.324;2022-11-27T02:10:51;35.35;;;11.80;;
64075;SDS011;50327;51.328;12.324;2022-11-27T02:15:43;27.00;;;11.70;;
64075;SDS011;50327;51.328;12.324;2022-11-27T02:23:18;29.60;;;10.95;;
64075;SDS011;50327;51.328;12.324;2022-11-27T02:30:55;26.63;;;10.98;;
64075;SDS011;50327;51.328;12.324;2022-11-27T02:33:21;31.02;;;11.35;;
64075;SDS011;50327;51.328;12.324;2022-11-27T02:35:49;31.83;;;11.95;;
64075;SDS011;50327;51.328;12.324;2022-11-27T02:38:16;34.08;;;13.27;;
64075;SDS011;50327;51.328;12.324;2022-11-27T02:40:58;29.10;;;12.32;;
64075;SDS011;50327;51.328;12.324;2022-11-27T02:43:31;31.67;;;12.27;;
64075;SDS011;50327;51.328;12.324;2022-11-27T02:45:57;28.83;;;13.02;;
64075;SDS011;50327;51.328;12.324;2022-11-27T02:48:32;26.10;;;12.07;;
64075;SDS011;50327;51.328;12.324;2022-11-27T02:50:58;30.92;;;11.98;;
64075;SDS011;50327;51.328;12.324;2022-11-27T02:53:25;33.88;;;12.68;;
64075;SDS011;50327;51.328;12.324;2022-11-27T02:55:53;31.05;;;11.27;;
64075;SDS011;50327;51.328;12.324;2022-11-27T02:58:20;25.65;;;11.70;;
64075;SDS011;50327;51.328;12.324;2022-11-27T03:00:46;28.92;;;10.90;;
64075;SDS011;50327;51.328;12.324;2022-11-27T03:03:12;25.98;;;10.77;;
64075;SDS011;50327;51.328;12.324;2022-11-27T03:05:41;20.65;;;10.30;;
64075;SDS011;50327;51.328;12.324;2022-11-27T03:08:17;24.38;;;10.30;;
64075;SDS011;50327;51.328;12.324;2022-11-27T03:10:59;35.88;;;12.65;;
64075;SDS011;50327;51.328;12.324;2022-11-27T03:13:25;32.15;;;11.25;;
64075;SDS011;50327;51.328;12.324;2022-11-27T03:20:52;29.75;;;11.57;;
64075;SDS011;50327;51.328;12.324;2022-11-27T03:23:20;33.95;;;10.25;;
64075;SDS011;50327;51.328;12.324;2022-11-27T03:25:45;25.50;;;12.60;;
64075;SDS011;50327;51.328;12.324;2022-11-27T03:28:11;28.90;;;10.35;;
64075;SDS011;50327;51.328;12.324;2022-11-27T03:30:38;46.20;;;11.90;;
64075;SDS011;50327;51.328;12.324;2022-11-27T03:33:04;27.70;;;10.43;;
64075;SDS011;50327;51.328;12.324;2022-11-27T03:35:29;28.20;;;12.60;;
64075;SDS011;50327;51.328;12.324;2022-11-27T03:37:55;33.30;;;12.68;;
64075;SDS011;50327;51.328;12.324;2022-11-27T03:40:22;33.80;;;12.55;;
64075;SDS011;50327;51.328;12.324;2022-11-27T03:42:57;34.45;;;12.20;;
64075;SDS011;50327;51.328;12.324;2022-11-27T03:57:53;32.13;;;12.63;;
64075;SDS011;50327;51.328;12.324;2022-11-27T04:00:20;34.50;;;12.55;;
64075;SDS011;50327;51.328;12.324;2022-11-27T04:02:47;33.88;;;12.52;;
64075;SDS011;50327;51.328;12.324;2022-11-27T04:05:13;32.45;;;11.25;;
64075;SDS011;50327;51.328;12.324;2022-11-27T04:07:39;24.83;;;10.40;;
64075;SDS011;50327;51.328;12.324;2022-11-27T04:10:04;25.10;;;11.35;;
64075;SDS011;50327;51.328;12.324;2022-11-27T04:12:30;29.33;;;12.68;;
64075;SDS011;50327;51.328;12.324;2022-11-27T04:14:55;29.70;;;12.90;;
64075;SDS011;50327;51.328;12.324;2022-11-27T04:17:20;26.60;;;13.35;;
64075;SDS011;50327;51.328;12.324;2022-11-27T04:19:46;32.67;;;13.18;;
64075;SDS011;50327;51.328;12.324;2022-11-27T04:22:11;28.30;;;12.57;;
64075;SDS011;50327;51.328;12.324;2022-11-27T04:24:36;30.67;;;13.60;;
64075;SDS011;50327;51.328;12.324;2022-11-27T04:27:01;25.55;;;13.00;;
64075;SDS011;50327;51.328;12.324;2022-11-27T04:29:26;40.20;;;12.77;;
64075;SDS011;50327;51.328;12.324;2022-11-27T04:31:52;32.35;;;13.88;;
64075;SDS011;50327;51.328;12.324;2022-11-27T04:34:17;29.23;;;13.15;;
64075;SDS011;50327;51.328;12.324;2022-11-27T04:36:42;26.08;;;13.10;;
64075;SDS011;50327;51.328;12.324;2022-11-27T04:39:07;23.33;;;12.25;;
64075;SDS011;50327;51.328;12.324;2022-11-27T04:41:33;25.23;;;12.75;;
64075;SDS011;50327;51.328;12.324;2022-11-27T04:43:58;24.35;;;13.20;;
64075;SDS011;50327;51.328;12.324;2022-11-27T04:46:23;28.90;;;12.38;;
64075;SDS011;50327;51.328;12.324;2022-11-27T04:48:48;28.83;;;13.20;;
64075;SDS011;50327;51.328;12.324;2022-11-27T04:51:13;26.30;;;13.38;;
64075;SDS011;50327;51.328;12.324;2022-11-27T04:53:38;24.98;;;12.07;;
64075;SDS011;50327;51.328;12.324;2022-11-27T04:56:04;27.05;;;12.52;;
64075;SDS011;50327;51.328;12.324;2022-11-27T04:58:29;23.95;;;12.30;;
64075;SDS011;50327;51.328;12.324;2022-11-27T05:00:54;32.85;;;12.32;;
64075;SDS011;50327;51.328;12.324;2022-11-27T05:03:19;25.65;;;11.10;;
64075;SDS011;50327;51.328;12.324;2022-11-27T05:05:45;33.35;;;13.25;;
64075;SDS011;50327;51.328;12.324;2022-11-27T05:08:17;31.23;;;12.32;;
64075;SDS011;50327;51.328;12.324;2022-11-27T05:10:43;35.83;;;13.27;;
64075;SDS011;50327;51.328;12.324;2022-11-27T05:13:08;32.28;;;12.10;;
64075;SDS011;50327;51.328;12.324;2022-11-27T05:15:33;28.63;;;12.40;;
64075;SDS011;50327;51.328;12.324;2022-11-27T05:17:58;28.85;;;12.70;;
64075;SDS011;50327;51.328;12.324;2022-11-27T05:20:24;33.97;;;12.80;;
64075;SDS011;50327;51.328;12.324;2022-11-27T05:22:49;33.88;;;12.30;;
64075;SDS011;50327;51.328;12.324;2022-11-27T05:25:14;32.55;;;13.23;;
64075;SDS011;50327;51.328;12.324;2022-11-27T05:27:39;30.77;;;12.88;;
64075;SDS011;50327;51.328;12.324;2022-11-27T05:30:05;22.30;;;10.70;;
64075;SDS011;50327;51.328;12.324;2022-11-27T05:32:30;31.35;;;12.90;;
64075;SDS011;50327;51.328;12.324;2022-11-27T05:34:55;36.47;;;11.63;;
64075;SDS011;50327;51.328;12.324;2022-11-27T05:37:20;27.40;;;11.40;;
64075;SDS011;50327;51.328;12.324;2022-11-27T05:39:46;31.42;;;12.70;;
64075;SDS011;50327;51.328;12.324;2022-11-27T05:42:11;25.10;;;11.07;;
64075;SDS011;50327;51.328;12.324;2022-11-27T05:44:36;26.30;;;11.60;;
64075;SDS011;50327;51.328;12.324;2022-11-27T05:47:01;28.05;;;12.13;;
64075;SDS011;50327;51.328;12.324;2022-11-27T05:49:27;29.25;;;12.00;;
64075;SDS011;50327;51.328;12.324;2022-11-27T05:51:52;23.55;;;11.73;;
64075;SDS011;50327;51.328;12.324;2022-11-27T05:54:17;23.48;;;11.52;;
64075;SDS011;50327;51.328;12.324;2022-11-27T05:56:43;25.90;;;10.57;;
64075;SDS011;50327;51.328;12.324;2022-11-27T05:59:08;38.83;;;13.68;;
64075;SDS011;50327;51.328;12.324;2022-11-27T06:01:34;31.52;;;13.18;;
64075;SDS011;50327;51.328;12.324;2022-11-27T06:04:00;33.72;;;12.10;;
64075;SDS011;50327;51.328;12.324;2022-11-27T06:06:25;30.73;;;11.45;;
64075;SDS011;50327;51.328;12.324;2022-11-27T06:08:50;33.33;;;11.70;;
64075;SDS011;50327;51.328;12.324;2022-11-27T06:11:19;34.17;;;11.13;;
64075;SDS011;50327;51.328;12.324;2022-11-27T06:13:44;30.10;;;11.13;;
64075;SDS011;50327;51.328;12.324;2022-11-27T06:16:11;33.47;;;13.48;;
64075;SDS011;50327;51.328;12.324;2022-11-27T06:18:37;28.88;;;12.10;;
64075;SDS011;50327;51.328;12.324;2022-11-27T06:21:09;26.58;;;11.77;;
64075;SDS011;50327;51.328;12.324;2022-11-27T06:23:35;29.27;;;12.63;;
64075;SDS011;50327;51.328;12.324;2022-11-27T06:28:35;30.58;;;12.38;;
64075;SDS011;50327;51.328;12.324;2022-11-27T06:31:04;30.50;;;12.02;;
64075;SDS011;50327;51.328;12.324;2022-11-27T06:33:29;26.80;;;12.32;;
64075;SDS011;50327;51.328;12.324;2022-11-27T06:35:54;34.38;;;13.43;;
64075;SDS011;50327;51.328;12.324;2022-11-27T06:38:19;32.53;;;12.82;;
64075;SDS011;50327;51.328;12.324;2022-11-27T06:40:44;31.25;;;12.30;;
64075;SDS011;50327;51.328;12.324;2022-11-27T06:43:10;27.13;;;11.65;;
64075;SDS011;50327;51.328;12.324;2022-11-27T06:45:35;27.38;;;11.38;;
64075;SDS011;50327;51.328;12.324;2022-11-27T06:48:00;28.60;;;12.05;;
64075;SDS011;50327;51.328;12.324;2022-11-27T06:50:25;29.63;;;11.55;;
64075;SDS011;50327;51.328;12.324;2022-11-27T06:52:51;25.83;;;11.80;;
64075;SDS011;50327;51.328;12.324;2022-11-27T06:55:16;42.33;;;13.25;;
64075;SDS011;50327;51.328;12.324;2022-11-27T06:57:41;37.05;;;12.60;;
64075;SDS011;50327;51.328;12.324;2022-11-27T07:00:06;33.15;;;12.80;;
64075;SDS011;50327;51.328;12.324;2022-11-27T07:02:32;30.90;;;12.70;;
64075;SDS011;50327;51.328;12.324;2022-11-27T07:04:57;33.70;;;12.27;;
64075;SDS011;50327;51.328;12.324;2022-11-27T07:07:22;33.33;;;11.73;;
64075;SDS011;50327;51.328;12.324;2022-11-27T07:09:47;28.67;;;12.15;;
64075;SDS011;50327;51.328;12.324;2022-11-27T07:12:13;29.42;;;12.45;;
64075;SDS011;50327;51.328;12.324;2022-11-27T07:14:38;30.35;;;11.60;;
64075;SDS011;50327;51.328;12.324;2022-11-27T07:17:03;39.25;;;12.07;;
64075;SDS011;50327;51.328;12.324;2022-11-27T07:19:28;34.58;;;12.23;;
64075;SDS011;50327;51.328;12.324;2022-11-27T07:21:53;28.60;;;11.45;;
64075;SDS011;50327;51.328;12.324;2022-11-27T07:24:19;37.10;;;10.55;;
64075;SDS011;50327;51.328;12.324;2022-11-27T07:26:44;28.25;;;13.00;;
64075;SDS011;50327;51.328;12.324;2022-11-27T07:29:09;33.03;;;10.80;;
64075;SDS011;50327;51.328;12.324;2022-11-27T07:31:35;29.80;;;12.15;;
64075;SDS011;50327;51.328;12.324;2022-11-27T07:34:00;35.85;;;12.52;;
64075;SDS011;50327;51.328;12.324;2022-11-27T07:36:26;44.78;;;12.50;;
64075;SDS011;50327;51.328;12.324;2022-11-27T07:38:52;34.40;;;12.57;;
64075;SDS011;50327;51.328;12.324;2022-11-27T07:41:17;38.08;;;13.85;;
64075;SDS011;50327;51.328;12.324;2022-11-27T07:43:43;35.50;;;12.52;;
64075;SDS011;50327;51.328;12.324;2022-11-27T07:46:16;30.10;;;12.98;;
64075;SDS011;50327;51.328;12.324;2022-11-27T07:48:41;28.33;;;12.27;;
64075;SDS011;50327;51.328;12.324;2022-11-27T07:51:07;32.78;;;12.23;;
64075;SDS011;50327;51.328;12.324;2022-11-27T07:53:34;26.95;;;10.88;;
64075;SDS011;50327;51.328;12.324;2022-11-27T07:55:59;29.58;;;12.95;;
64075;SDS011;50327;51.328;12.324;2022-11-27T07:58:24;29.65;;;11.40;;
64075;SDS011;50327;51.328;12.324;2022-11-27T08:00:50;34.47;;;11.98;;
64075;SDS011;50327;51.328;12.324;2022-11-27T08:03:15;31.13;;;10.50;;
64075;SDS011;50327;51.328;12.324;2022-11-27T08:05:40;43.45;;;13.32;;
64075;SDS011;50327;51.328;12.324;2022-11-27T08:08:06;29.23;;;11.93;;
64075;SDS011;50327;51.328;12.324;2022-11-27T08:10:34;25.67;;;11.85;;
64075;SDS011;50327;51.328;12.324;2022-11-27T08:12:59;23.85;;;10.88;;
64075;SDS011;50327;51.328;12.324;2022-11-27T08:15:25;26.92;;;11.23;;
64075;SDS011;50327;51.328;12.324;2022-11-27T08:17:50;35.75;;;11.98;;
64075;SDS011;50327;51.328;12.324;2022-11-27T08:20:15;26.63;;;11.07;;
64075;SDS011;50327;51.328;12.324;2022-11-27T08:22:40;22.65;;;10.88;;
64075;SDS011;50327;51.328;12.324;2022-11-27T08:25:06;22.38;;;10.85;;
64075;SDS011;50327;51.328;12.324;2022-11-27T08:27:31;26.30;;;11.48;;
64075;SDS011;50327;51.328;12.324;2022-11-27T08:29:57;31.70;;;12.27;;
64075;SDS011;50327;51.328;12.324;2022-11-27T08:32:23;32.10;;;13.32;;
64075;SDS011;50327;51.328;12.324;2022-11-27T08:34:48;30.27;;;12.82;;
64075;SDS011;50327;51.328;12.324;2022-11-27T08:37:13;21.85;;;10.82;;
64075;SDS011;50327;51.328;12.324;2022-11-27T08:39:38;24.13;;;11.35;;
64075;SDS011;50327;51.328;12.324;2022-11-27T08:42:04;22.67;;;10.18;;
64075;SDS011;50327;51.328;12.324;2022-11-27T08:44:29;33.17;;;13.13;;
64075;SDS011;50327;51.328;12.324;2022-11-27T08:46:54;36.60;;;13.05;;
64075;SDS011;50327;51.328;12.324;2022-11-27T08:49:19;31.33;;;12.13;;
64075;SDS011;50327;51.328;12.324;2022-11-27T08:51:45;25.52;;;11.00;;
64075;SDS011;50327;51.328;12.324;2022-11-27T08:54:10;24.88;;;11.10;;
64075;SDS011;50327;51.328;12.324;2022-11-27T08:56:35;30.35;;;12.40;;
64075;SDS011;50327;51.328;12.324;2022-11-27T08:59:00;23.83;;;11.18;;
64075;SDS011;50327;51.328;12.324;2022-11-27T09:01:27;32.38;;;12.68;;
64075;SDS011;50327;51.328;12.324;2022-11-27T09:03:53;30.58;;;10.85;;
64075;SDS011;50327;51.328;12.324;2022-11-27T09:06:19;25.48;;;11.07;;
64075;SDS011;50327;51.328;12.324;2022-11-27T09:08:45;26.20;;;10.35;;
64075;SDS011;50327;51.328;12.324;2022-11-27T09:11:11;25.33;;;10.32;;
64075;SDS011;50327;51.328;12.324;2022-11-27T09:13:37;19.70;;;9.40;;
64075;SDS011;50327;51.328;12.324;2022-11-27T09:16:04;18.60;;;9.55;;
64075;SDS011;50327;51.328;12.324;2022-11-27T09:18:29;19.33;;;9.95;;
64075;SDS011;50327;51.328;12.324;2022-11-27T09:21:01;21.70;;;9.27;;
64075;SDS011;50327;51.328;12.324;2022-11-27T09:23:27;25.13;;;9.70;;
64075;SDS011;50327;51.328;12.324;2022-11-27T09:25:52;27.10;;;9.27;;
64075;SDS011;50327;51.328;12.324;2022-11-27T09:28:17;18.77;;;9.57;;
64075;SDS011;50327;51.328;12.324;2022-11-27T09:30:43;19.80;;;8.02;;
64075;SDS011;50327;51.328;12.324;2022-11-27T09:33:08;22.55;;;8.48;;
64075;SDS011;50327;51.328;12.324;2022-11-27T09:35:35;17.25;;;7.72;;
64075;SDS011;50327;51.328;12.324;2022-11-27T09:38:00;16.02;;;7.90;;
64075;SDS011;50327;51.328;12.324;2022-11-27T09:40:26;19.50;;;7.43;;
64075;SDS011;50327;51.328;12.324;2022-11-27T09:42:58;15.32;;;6.88;;
64075;SDS011;50327;51.328;12.324;2022-11-27T09:45:26;15.98;;;6.38;;
64075;SDS011;50327;51.328;12.324;2022-11-27T09:47:54;16.65;;;7.13;;
64075;SDS011;50327;51.328;12.324;2022-11-27T09:50:25;14.02;;;7.13;;
64075;SDS011;50327;51.328;12.324;2022-11-27T09:55:23;11.52;;;5.35;;
64075;SDS011;50327;51.328;12.324;2022-11-27T09:57:54;9.70;;;5.45;;
64075;SDS011;50327;51.328;12.324;2022-11-27T10:00:21;14.45;;;6.40;;
64075;SDS011;50327;51.328;12.324;2022-11-27T10:02:46;9.60;;;4.90;;
64075;SDS011;50327;51.328;12.324;2022-11-27T10:21:02;14.27;;;5.10;;
64075;SDS011;50327;51.328;12.324;2022-11-27T10:26:00;14.23;;;6.45;;
64075;SDS011;50327;51.328;12.324;2022-11-27T10:28:40;20.55;;;6.65;;
64075;SDS011;50327;51.328;12.324;2022-11-27T10:31:14;10.60;;;5.38;;
64075;SDS011;50327;51.328;12.324;2022-11-27T10:33:42;13.63;;;6.07;;
64075;SDS011;50327;51.328;12.324;2022-11-27T10:38:49;11.85;;;5.53;;
64075;SDS011;50327;51.328;12.324;2022-11-27T10:41:27;14.80;;;5.68;;
64075;SDS011;50327;51.328;12.324;2022-11-27T10:43:54;13.57;;;5.90;;
64075;SDS011;50327;51.328;12.324;2022-11-27T10:46:24;11.18;;;5.07;;
64075;SDS011;50327;51.328;12.324;2022-11-27T10:48:51;13.82;;;5.10;;
64075;SDS011;50327;51.328;12.324;2022-11-27T10:51:18;15.43;;;6.30;;
64075;SDS011;50327;51.328;12.324;2022-11-27T10:53:44;12.52;;;5.60;;
64075;SDS011;50327;51.328;12.324;2022-11-27T10:58:54;15.00;;;5.25;;
64075;SDS011;50327;51.328;12.324;2022-11-27T11:01:21;19.63;;;5.55;;
64075;SDS011;50327;51.328;12.324;2022-11-27T11:03:47;13.10;;;5.00;;
64075;SDS011;50327;51.328;12.324;2022-11-27T11:06:22;13.75;;;4.75;;
64075;SDS011;50327;51.328;12.324;2022-11-27T11:11:32;10.80;;;4.90;;
64075;SDS011;50327;51.328;12.324;2022-11-27T11:13:58;11.55;;;5.50;;
64075;SDS011;50327;51.328;12.324;2022-11-27T11:16:24;11.18;;;4.85;;
64075;SDS011;50327;51.328;12.324;2022-11-27T11:18:52;13.30;;;5.17;;
64075;SDS011;50327;51.328;12.324;2022-11-27T11:21:18;11.48;;;4.70;;
64075;SDS011;50327;51.328;12.324;2022-11-27T11:23:51;14.30;;;4.78;;
64075;SDS011;50327;51.328;12.324;2022-11-27T11:26:25;12.52;;;4.70;;
64075;SDS011;50327;51.328;12.324;2022-11-27T11:28:55;19.33;;;6.10;;
64075;SDS011;50327;51.328;12.324;2022-11-27T11:31:22;12.77;;;5.15;;
64075;SDS011;50327;51.328;12.324;2022-11-27T11:33:53;12.90;;;5.65;;
64075;SDS011;50327;51.328;12.324;2022-11-27T11:36:20;10.55;;;5.72;;
64075;SDS011;50327;51.328;12.324;2022-11-27T11:38:45;13.80;;;6.22;;
64075;SDS011;50327;51.328;12.324;2022-11-27T11:41:11;13.68;;;6.50;;
64075;SDS011;50327;51.328;12.324;2022-11-27T11:43:38;13.30;;;5.75;;
64075;SDS011;50327;51.328;12.324;2022-11-27T11:46:12;10.95;;;5.20;;
64075;SDS011;50327;51.328;12.324;2022-11-27T11:48:39;14.50;;;5.38;;
64075;SDS011;50327;51.328;12.324;2022-11-27T11:55:59;13.48;;;5.30;;
64075;SDS011;50327;51.328;12.324;2022-11-27T12:03:51;17.73;;;5.45;;
64075;SDS011;50327;51.328;12.324;2022-11-27T12:06:28;12.52;;;5.65;;
64075;SDS011;50327;51.328;12.324;2022-11-27T12:11:29;17.65;;;6.13;;
64075;SDS011;50327;51.328;12.324;2022-11-27T12:16:35;18.02;;;6.60;;
64075;SDS011;50327;51.328;12.324;2022-11-27T12:24:32;18.85;;;6.00;;
64075;SDS011;50327;51.328;12.324;2022-11-27T12:32:09;11.35;;;4.80;;
64075;SDS011;50327;51.328;12.324;2022-11-27T12:34:42;15.00;;;4.47;;
64075;SDS011;50327;51.328;12.324;2022-11-27T12:42:29;13.68;;;5.55;;
64075;SDS011;50327;51.328;12.324;2022-11-27T12:47:41;15.43;;;6.15;;
64075;SDS011;50327;51.328;12.324;2022-11-27T12:52:45;19.52;;;5.50;;
64075;SDS011;50327;51.328;12.324;2022-11-27T12:55:20;16.23;;;5.63;;
64075;SDS011;50327;51.328;12.324;2022-11-27T12:57:50;11.73;;;5.68;;
64075;SDS011;50327;51.328;12.324;2022-11-27T13:00:18;17.55;;;5.60;;
64075;SDS011;50327;51.328;12.324;2022-11-27T13:05:33;15.13;;;5.60;;
64075;SDS011;50327;51.328;12.324;2022-11-27T13:11:03;14.47;;;6.27;;
64075;SDS011;50327;51.328;12.324;2022-11-27T13:13:30;18.77;;;5.65;;
64075;SDS011;50327;51.328;12.324;2022-11-27T13:16:05;12.25;;;5.25;;
64075;SDS011;50327;51.328;12.324;2022-11-27T13:18:33;22.15;;;6.00;;
64075;SDS011;50327;51.328;12.324;2022-11-27T13:21:00;15.00;;;5.80;;
64075;SDS011;50327;51.328;12.324;2022-11-27T13:23:29;17.33;;;6.78;;
64075;SDS011;50327;51.328;12.324;2022-11-27T13:25:54;14.18;;;5.22;;
64075;SDS011;50327;51.328;12.324;2022-11-27T13:28:25;16.92;;;5.93;;
64075;SDS011;50327;51.328;12.324;2022-11-27T13:30:51;14.98;;;6.38;;
64075;SDS011;50327;51.328;12.324;2022-11-27T13:33:22;14.20;;;5.93;;
64075;SDS011;50327;51.328;12.324;2022-11-27T13:35:51;13.43;;;5.28;;
64075;SDS011;50327;51.328;12.324;2022-11-27T13:40:45;16.10;;;6.10;;
64075;SDS011;50327;51.328;12.324;2022-11-27T13:45:59;13.30;;;5.38;;
64075;SDS011;50327;51.328;12.324;2022-11-27T13:48:27;11.48;;;5.32;;
64075;SDS011;50327;51.328;12.324;2022-11-27T13:50:54;15.85;;;6.50;;
64075;SDS011;50327;51.328;12.324;2022-11-27T13:53:28;13.85;;;5.82;;
64075;SDS011;50327;51.328;12.324;2022-11-27T13:55:53;32.33;;;6.22;;
64075;SDS011;50327;51.328;12.324;2022-11-27T13:58:33;11.57;;;5.03;;
64075;SDS011;50327;51.328;12.324;2022-11-27T14:01:09;11.20;;;4.93;;
64075;SDS011;50327;51.328;12.324;2022-11-27T14:03:36;12.50;;;4.82;;
64075;SDS011;50327;51.328;12.324;2022-11-27T14:06:01;13.80;;;4.80;;
64075;SDS011;50327;51.328;12.324;2022-11-27T14:08:30;12.90;;;5.13;;
64075;SDS011;50327;51.328;12.324;2022-11-27T14:10:57;17.17;;;5.75;;
64075;SDS011;50327;51.328;12.324;2022-11-27T14:18:50;18.27;;;6.32;;
64075;SDS011;50327;51.328;12.324;2022-11-27T14:21:23;13.05;;;5.45;;
64075;SDS011;50327;51.328;12.324;2022-11-27T14:23:49;14.95;;;5.47;;
64075;SDS011;50327;51.328;12.324;2022-11-27T14:28:44;13.93;;;5.88;;
64075;SDS011;50327;51.328;12.324;2022-11-27T14:31:25;15.90;;;6.63;;
64075;SDS011;50327;51.328;12.324;2022-11-27T14:33:51;17.45;;;6.82;;
64075;SDS011;50327;51.328;12.324;2022-11-27T14:36:20;17.35;;;6.75;;
64075;SDS011;50327;51.328;12.324;2022-11-27T14:38:45;13.82;;;5.90;;
64075;SDS011;50327;51.328;12.324;2022-11-27T14:41:15;20.95;;;7.50;;
64075;SDS011;50327;51.328;12.324;2022-11-27T14:43:40;17.63;;;7.22;;
64075;SDS011;50327;51.328;12.324;2022-11-27T14:46:07;14.43;;;7.15;;
64075;SDS011;50327;51.328;12.324;2022-11-27T14:48:43;21.60;;;7.35;;
64075;SDS011;50327;51.328;12.324;2022-11-27T14:51:12;17.65;;;6.68;;
64075;SDS011;50327;51.328;12.324;2022-11-27T14:56:03;27.83;;;7.78;;
64075;SDS011;50327;51.328;12.324;2022-11-27T14:58:28;19.05;;;6.72;;
64075;SDS011;50327;51.328;12.324;2022-11-27T15:00:55;19.15;;;7.68;;
64075;SDS011;50327;51.328;12.324;2022-11-27T15:03:22;19.55;;;7.20;;
64075;SDS011;50327;51.328;12.324;2022-11-27T15:05:50;17.08;;;6.20;;
64075;SDS011;50327;51.328;12.324;2022-11-27T15:08:16;18.02;;;6.40;;
64075;SDS011;50327;51.328;12.324;2022-11-27T15:10:42;18.70;;;6.65;;
64075;SDS011;50327;51.328;12.324;2022-11-27T15:13:15;20.08;;;7.95;;
64075;SDS011;50327;51.328;12.324;2022-11-27T15:15:43;16.38;;;7.32;;
64075;SDS011;50327;51.328;12.324;2022-11-27T15:18:13;16.80;;;7.88;;
64075;SDS011;50327;51.328;12.324;2022-11-27T15:20:43;32.90;;;9.02;;
64075;SDS011;50327;51.328;12.324;2022-11-27T15:23:16;18.02;;;7.22;;
64075;SDS011;50327;51.328;12.324;2022-11-27T15:25:43;24.17;;;8.68;;
64075;SDS011;50327;51.328;12.324;2022-11-27T15:28:20;14.57;;;7.60;;
64075;SDS011;50327;51.328;12.324;2022-11-27T15:30:49;15.13;;;6.97;;
64075;SDS011;50327;51.328;12.324;2022-11-27T15:33:24;13.45;;;6.60;;
64075;SDS011;50327;51.328;12.324;2022-11-27T15:35:50;21.13;;;7.40;;
64075;SDS011;50327;51.328;12.324;2022-11-27T15:38:16;15.57;;;7.20;;
64075;SDS011;50327;51.328;12.324;2022-11-27T15:40:41;17.88;;;7.40;;
64075;SDS011;50327;51.328;12.324;2022-11-27T15:43:10;17.60;;;7.85;;
64075;SDS011;50327;51.328;12.324;2022-11-27T15:45:36;19.95;;;7.25;;
64075;SDS011;50327;51.328;12.324;2022-11-27T15:48:01;17.85;;;7.30;;
64075;SDS011;50327;51.328;12.324;2022-11-27T15:50:29;18.38;;;7.03;;
64075;SDS011;50327;51.328;12.324;2022-11-27T15:52:55;18.73;;;7.35;;
64075;SDS011;50327;51.328;12.324;2022-11-27T15:55:20;12.60;;;6.28;;
64075;SDS011;50327;51.328;12.324;2022-11-27T15:57:46;21.65;;;6.63;;
64075;SDS011;50327;51.328;12.324;2022-11-27T16:00:12;18.70;;;6.68;;
64075;SDS011;50327;51.328;12.324;2022-11-27T16:02:38;12.57;;;6.20;;
64075;SDS011;50327;51.328;12.324;2022-11-27T16:05:04;15.60;;;6.72;;
64075;SDS011;50327;51.328;12.324;2022-11-27T16:07:29;15.35;;;6.53;;
64075;SDS011;50327;51.328;12.324;2022-11-27T16:09:54;18.42;;;7.82;;
64075;SDS011;50327;51.328;12.324;2022-11-27T16:12:20;15.00;;;7.03;;
64075;SDS011;50327;51.328;12.324;2022-11-27T16:14:45;15.30;;;7.22;;
64075;SDS011;50327;51.328;12.324;2022-11-27T16:17:10;13.23;;;6.85;;
64075;SDS011;50327;51.328;12.324;2022-11-27T16:19:36;14.30;;;6.90;;